Time;durP1;ratioP1;P1;durP2;ratioP2;P2;SDS_P1;SDS_P2;PMS_P1;PMS_P2;Temp;Humidity;BMP_temperature;BMP_pressure;BME280_temperature;BME280_humidity;BME280_pressure;Samples;Min_cycle;Max_cycle;Signal;HPM_P1;HPM_P2
2021/04/24 00:00:45;;;;;;;0.00;0.00;;;;;;;;;;5044236;28;20175;-61
2021/04/24 00:03:15;;;;;;;0.00;0.00;;;;;;;;;;5043912;28;20416;-61
2021/04/24 00:05:43;;;;;;;0.00;0.00;;;;;;;;;;5044844;28;20184;-61
2021/04/24 00:08:13;;;;;;;6.50;2.00;;;;;;;;;;5043711;28;20306;-61
2021/04/24 00:10:42;;;;;;;0.00;0.00;;;;;;;;;;5039191;28;20294;-61
2021/04/24 00:13:13;;;;;;;0.10;0.10;;;;;;;;;;5042236;28;20558;-61
2021/04/24 00:15:42;;;;;;;1.30;0.90;;;;;;;;;;5040616;28;20187;-60
2021/04/24 00:18:09;;;;;;;0.10;0.10;;;;;;;;;;5042648;28;20274;-60
2021/04/24 00:20:36;;;;;;;0.00;0.00;;;;;;;;;;5046250;28;20626;-60
2021/04/24 00:23:07;;;;;;;0.27;0.27;;;;;;;;;;5027686;28;20198;-60
2021/04/24 00:25:39;;;;;;;0.00;0.00;;;;;;;;;;5046401;28;20533;-60
2021/04/24 00:28:10;;;;;;;0.00;0.00;;;;;;;;;;5039381;28;20204;-61
2021/04/24 00:30:37;;;;;;;0.00;0.00;;;;;;;;;;5041396;28;20199;-61
2021/04/24 00:33:07;;;;;;;0.00;0.00;;;;;;;;;;5045146;28;20321;-61
2021/04/24 00:35:34;;;;;;;0.20;0.20;;;;;;;;;;5042345;28;20179;-61
2021/04/24 00:38:07;;;;;;;0.23;0.23;;;;;;;;;;5043710;28;20877;-61
2021/04/24 00:40:40;;;;;;;2.23;1.30;;;;;;;;;;5037563;28;20233;-61
2021/04/24 00:43:09;;;;;;;0.10;0.10;;;;;;;;;;5043932;28;20200;-61
2021/04/24 00:45:42;;;;;;;0.10;0.07;;;;;;;;;;5044891;28;20645;-61
2021/04/24 00:48:10;;;;;;;0.00;0.00;;;;;;;;;;5027421;28;20176;-62
2021/04/24 00:50:39;;;;;;;0.00;0.00;;;;;;;;;;5031121;28;20191;-61
2021/04/24 00:53:09;;;;;;;0.00;0.00;;;;;;;;;;5025856;28;20513;-61
2021/04/24 00:55:41;;;;;;;0.00;0.00;;;;;;;;;;5036968;28;20189;-61
2021/04/24 00:58:28;;;;;;;0.97;0.87;;;;;;;;;;5036138;28;20287;-61
2021/04/24 01:00:57;;;;;;;0.13;0.13;;;;;;;;;;5039153;28;20709;-62
2021/04/24 01:03:28;;;;;;;0.10;0.10;;;;;;;;;;5025835;28;20176;-61
2021/04/24 01:05:54;;;;;;;0.00;0.00;;;;;;;;;;5038446;28;20193;-61
2021/04/24 01:08:34;;;;;;;0.37;0.37;;;;;;;;;;5028559;28;20188;-61
2021/04/24 01:11:01;;;;;;;0.00;0.00;;;;;;;;;;5046470;28;20257;-61
2021/04/24 01:13:34;;;;;;;0.53;0.20;;;;;;;;;;5039478;28;20679;-61
2021/04/24 01:16:00;;;;;;;0.43;0.27;;;;;;;;;;5046612;28;20229;-61
2021/04/24 01:18:29;;;;;;;0.00;0.00;;;;;;;;;;5045219;28;20891;-61
2021/04/24 01:20:57;;;;;;;0.40;0.30;;;;;;;;;;5046678;28;20958;-62
2021/04/24 01:23:39;;;;;;;0.00;0.00;;;;;;;;;;5042503;28;20200;-62
2021/04/24 01:26:06;;;;;;;0.07;0.07;;;;;;;;;;5041517;28;20309;-61
2021/04/24 01:28:38;;;;;;;0.00;0.00;;;;;;;;;;5034145;28;20187;-62
2021/04/24 01:31:05;;;;;;;0.40;0.40;;;;;;;;;;5019862;28;20661;-62
2021/04/24 01:33:39;;;;;;;0.00;0.00;;;;;;;;;;5032747;28;20202;-62
2021/04/24 01:36:06;;;;;;;0.00;0.00;;;;;;;;;;5044786;28;20889;-62
2021/04/24 01:38:39;;;;;;;0.00;0.00;;;;;;;;;;5041361;28;20861;-61
2021/04/24 01:41:10;;;;;;;0.00;0.00;;;;;;;;;;5042542;28;20184;-62
2021/04/24 01:43:46;;;;;;;0.00;0.00;;;;;;;;;;5042490;28;20184;-62
2021/04/24 01:46:13;;;;;;;3.23;0.77;;;;;;;;;;5044330;28;20196;-62
2021/04/24 01:48:40;;;;;;;0.20;0.20;;;;;;;;;;5029039;28;20554;-62
2021/04/24 01:51:06;;;;;;;0.20;0.20;;;;;;;;;;5033669;28;20203;-62
2021/04/24 01:53:35;;;;;;;0.10;0.03;;;;;;;;;;5042736;28;20234;-62
2021/04/24 01:56:03;;;;;;;0.37;0.37;;;;;;;;;;5041135;28;20188;-62
2021/04/24 01:58:32;;;;;;;0.63;0.63;;;;;;;;;;5041236;28;20188;-61
2021/04/24 02:01:12;;;;;;;2.00;0.53;;;;;;;;;;5044187;28;20199;-61
2021/04/24 02:03:41;;;;;;;0.00;0.00;;;;;;;;;;5039505;28;20193;-61
2021/04/24 02:06:07;;;;;;;2.60;2.40;;;;;;;;;;5025938;28;20215;-62
2021/04/24 02:08:43;;;;;;;0.17;0.17;;;;;;;;;;5042313;28;20199;-61
2021/04/24 02:11:12;;;;;;;1.10;1.10;;;;;;;;;;5042706;28;20290;-61
2021/04/24 02:13:43;;;;;;;0.23;0.23;;;;;;;;;;5040009;28;20717;-61
2021/04/24 02:16:11;;;;;;;0.10;0.10;;;;;;;;;;5020194;28;20422;-60
2021/04/24 02:18:38;;;;;;;0.00;0.00;;;;;;;;;;5038577;28;21057;-61
2021/04/24 02:21:05;;;;;;;2.73;0.90;;;;;;;;;;5041735;28;20734;-60
2021/04/24 02:23:40;;;;;;;0.00;0.00;;;;;;;;;;5035771;28;20198;-60
2021/04/24 02:26:12;;;;;;;0.07;0.07;;;;;;;;;;5041069;28;20648;-60
2021/04/24 02:28:48;;;;;;;2.17;0.43;;;;;;;;;;5037421;28;20985;-60
2021/04/24 02:31:15;;;;;;;0.10;0.10;;;;;;;;;;5038046;28;20196;-59
2021/04/24 02:33:43;;;;;;;0.73;0.60;;;;;;;;;;5016782;28;21119;-61
2021/04/24 02:36:09;;;;;;;0.10;0.10;;;;;;;;;;5032882;28;20184;-61
2021/04/24 02:38:36;;;;;;;0.57;0.50;;;;;;;;;;5033064;28;20191;-62
2021/04/24 02:41:04;;;;;;;0.33;0.33;;;;;;;;;;5031167;28;20210;-61
2021/04/24 02:43:32;;;;;;;0.10;0.10;;;;;;;;;;5034062;28;20192;-61
2021/04/24 02:45:58;;;;;;;0.73;0.73;;;;;;;;;;5034747;28;20844;-61
2021/04/24 02:48:25;;;;;;;0.00;0.00;;;;;;;;;;5039547;28;20183;-61
2021/04/24 02:50:52;;;;;;;0.00;0.00;;;;;;;;;;5038050;28;20215;-61
2021/04/24 02:53:18;;;;;;;11.90;0.63;;;;;;;;;;5034936;28;20270;-62
2021/04/24 02:55:45;;;;;;;0.10;0.10;;;;;;;;;;5036101;28;20178;-61
2021/04/24 02:58:13;;;;;;;0.37;0.37;;;;;;;;;;5036902;28;20188;-61
2021/04/24 03:00:39;;;;;;;0.10;0.10;;;;;;;;;;5039913;28;20929;-61
2021/04/24 03:03:08;;;;;;;2.17;1.80;;;;;;;;;;5024010;28;20180;-61
2021/04/24 03:05:35;;;;;;;0.20;0.20;;;;;;;;;;5037095;28;20188;-61
2021/04/24 03:08:02;;;;;;;0.00;0.00;;;;;;;;;;5034995;28;20272;-61
2021/04/24 03:10:29;;;;;;;1.30;1.20;;;;;;;;;;5040190;28;20214;-61
2021/04/24 03:12:56;;;;;;;0.43;0.23;;;;;;;;;;5039097;28;20913;-61
2021/04/24 03:15:22;;;;;;;0.20;0.20;;;;;;;;;;5036043;28;20179;-61
2021/04/24 03:17:49;;;;;;;0.13;0.13;;;;;;;;;;5038210;28;20190;-61
2021/04/24 03:20:18;;;;;;;0.63;0.37;;;;;;;;;;5038349;28;20183;-60
2021/04/24 03:22:45;;;;;;;0.30;0.30;;;;;;;;;;5038061;28;20183;-61
2021/04/24 03:25:11;;;;;;;1.03;0.67;;;;;;;;;;5037993;28;20253;-61
2021/04/24 03:27:38;;;;;;;0.07;0.07;;;;;;;;;;5036191;28;20262;-61
2021/04/24 03:30:06;;;;;;;0.00;0.00;;;;;;;;;;5038776;28;20172;-61
2021/04/24 03:32:33;;;;;;;0.10;0.10;;;;;;;;;;5038607;28;20195;-61
2021/04/24 03:34:59;;;;;;;0.13;0.13;;;;;;;;;;5037480;28;20188;-61
2021/04/24 03:37:26;;;;;;;0.20;0.13;;;;;;;;;;5033253;28;20410;-61
2021/04/24 03:39:53;;;;;;;0.47;0.40;;;;;;;;;;5037604;28;20976;-62
2021/04/24 03:42:19;;;;;;;0.30;0.30;;;;;;;;;;5036697;28;20183;-61
2021/04/24 03:44:46;;;;;;;0.10;0.10;;;;;;;;;;5035968;28;20183;-61
2021/04/24 03:47:12;;;;;;;0.00;0.00;;;;;;;;;;5036192;28;20183;-62
2021/04/24 03:49:39;;;;;;;0.07;0.07;;;;;;;;;;5036316;28;20774;-61
2021/04/24 03:52:06;;;;;;;0.10;0.10;;;;;;;;;;5035004;28;20680;-61
2021/04/24 03:54:33;;;;;;;1.07;1.00;;;;;;;;;;5035733;28;20172;-61
2021/04/24 03:57:00;;;;;;;0.00;0.00;;;;;;;;;;5036065;28;20177;-60
2021/04/24 03:59:26;;;;;;;5.93;0.87;;;;;;;;;;5035551;28;20261;-62
2021/04/24 04:01:53;;;;;;;0.10;0.10;;;;;;;;;;5034964;28;20195;-60
2021/04/24 04:04:20;;;;;;;0.00;0.00;;;;;;;;;;5033680;28;20627;-60
2021/04/24 04:06:46;;;;;;;0.80;0.33;;;;;;;;;;5037093;28;20254;-60
2021/04/24 04:09:13;;;;;;;1.37;1.37;;;;;;;;;;5037999;28;20186;-60
2021/04/24 04:11:39;;;;;;;1.73;0.83;;;;;;;;;;5033529;28;20670;-59
2021/04/24 04:14:06;;;;;;;0.43;0.43;;;;;;;;;;5037130;28;20743;-60
2021/04/24 04:16:33;;;;;;;0.27;0.27;;;;;;;;;;5036859;28;20207;-60
2021/04/24 04:18:59;;;;;;;0.50;0.50;;;;;;;;;;5036518;28;20203;-60
2021/04/24 04:21:26;;;;;;;0.63;0.63;;;;;;;;;;5037590;28;20184;-60
2021/04/24 04:23:52;;;;;;;0.37;0.30;;;;;;;;;;5037632;28;20626;-61
2021/04/24 04:26:19;;;;;;;0.10;0.10;;;;;;;;;;5036797;28;20199;-60
2021/04/24 04:28:46;;;;;;;0.10;0.10;;;;;;;;;;5029661;28;20191;-60
2021/04/24 04:31:12;;;;;;;0.10;0.10;;;;;;;;;;5038248;28;20260;-60
2021/04/24 04:33:39;;;;;;;0.10;0.10;;;;;;;;;;5038454;28;20179;-60
2021/04/24 04:36:06;;;;;;;0.20;0.20;;;;;;;;;;5038574;28;20218;-61
2021/04/24 04:38:33;;;;;;;0.10;0.10;;;;;;;;;;5034328;28;20204;-60
2021/04/24 04:41:00;;;;;;;0.03;0.03;;;;;;;;;;5027642;28;20207;-60
2021/04/24 04:43:27;;;;;;;0.10;0.10;;;;;;;;;;5037591;28;20225;-60
2021/04/24 04:45:54;;;;;;;1.40;0.57;;;;;;;;;;5037739;28;20199;-60
2021/04/24 04:48:20;;;;;;;0.13;0.13;;;;;;;;;;5037904;28;20325;-60
2021/04/24 04:50:47;;;;;;;0.10;0.10;;;;;;;;;;5033987;28;20246;-60
2021/04/24 04:53:14;;;;;;;0.23;0.23;;;;;;;;;;5038766;28;20178;-60
2021/04/24 04:55:40;;;;;;;0.10;0.10;;;;;;;;;;5036928;28;20221;-60
2021/04/24 04:58:07;;;;;;;0.10;0.10;;;;;;;;;;5033318;28;20178;-60
2021/04/24 05:00:34;;;;;;;0.20;0.20;;;;;;;;;;5038310;28;20190;-61
2021/04/24 05:03:00;;;;;;;0.60;0.60;;;;;;;;;;5025841;28;20591;-62
2021/04/24 05:05:27;;;;;;;0.10;0.10;;;;;;;;;;5034706;28;20278;-62
2021/04/24 05:07:54;;;;;;;0.17;0.17;;;;;;;;;;5032847;28;20915;-61
2021/04/24 05:10:23;;;;;;;0.20;0.20;;;;;;;;;;5034520;28;20274;-61
2021/04/24 05:12:50;;;;;;;0.10;0.10;;;;;;;;;;5029767;28;20279;-62
2021/04/24 05:15:17;;;;;;;0.77;0.77;;;;;;;;;;5029662;28;20901;-62
2021/04/24 05:17:44;;;;;;;0.10;0.10;;;;;;;;;;5036592;28;20191;-61
2021/04/24 05:20:11;;;;;;;0.10;0.10;;;;;;;;;;5035833;28;20249;-62
2021/04/24 05:22:38;;;;;;;1.23;1.23;;;;;;;;;;5033054;28;20182;-61
2021/04/24 05:25:05;;;;;;;0.20;0.20;;;;;;;;;;5037509;28;20185;-61
2021/04/24 05:27:32;;;;;;;0.17;0.17;;;;;;;;;;5037863;28;20822;-62
2021/04/24 05:29:59;;;;;;;0.10;0.10;;;;;;;;;;5036111;28;20211;-62
2021/04/24 05:32:26;;;;;;;0.10;0.10;;;;;;;;;;5036337;28;20203;-62
2021/04/24 05:34:53;;;;;;;0.20;0.20;;;;;;;;;;5035838;28;20176;-61
2021/04/24 05:37:19;;;;;;;0.20;0.20;;;;;;;;;;5036347;28;20544;-61
2021/04/24 05:39:46;;;;;;;0.20;0.20;;;;;;;;;;5019203;28;20183;-61
2021/04/24 05:42:13;;;;;;;0.00;0.00;;;;;;;;;;5030670;28;20184;-61
2021/04/24 05:44:40;;;;;;;0.10;0.10;;;;;;;;;;5027826;28;20182;-61
2021/04/24 05:47:07;;;;;;;0.47;0.47;;;;;;;;;;5037783;28;20306;-62
2021/04/24 05:49:33;;;;;;;0.20;0.20;;;;;;;;;;5035832;28;20248;-62
2021/04/24 05:52:00;;;;;;;0.10;0.10;;;;;;;;;;5036726;28;20320;-64
2021/04/24 05:54:27;;;;;;;0.10;0.10;;;;;;;;;;5040164;28;20171;-61
2021/04/24 05:56:54;;;;;;;2.90;1.17;;;;;;;;;;5040714;28;20175;-62
2021/04/24 05:59:21;;;;;;;0.00;0.00;;;;;;;;;;5037793;28;20191;-61
2021/04/24 06:01:47;;;;;;;0.00;0.00;;;;;;;;;;5039184;28;20184;-61
2021/04/24 06:04:14;;;;;;;0.00;0.00;;;;;;;;;;5039205;28;20904;-61
2021/04/24 06:06:41;;;;;;;0.00;0.00;;;;;;;;;;5036179;28;20223;-62
2021/04/24 06:09:07;;;;;;;2.47;1.93;;;;;;;;;;5032042;28;20246;-61
2021/04/24 06:11:35;;;;;;;10.50;3.07;;;;;;;;;;5041283;28;20302;-63
2021/04/24 06:14:02;;;;;;;0.20;0.20;;;;;;;;;;5040523;28;20230;-63
2021/04/24 06:16:28;;;;;;;0.00;0.00;;;;;;;;;;5040979;28;20261;-64
2021/04/24 06:18:56;;;;;;;0.10;0.10;;;;;;;;;;5041166;28;20180;-63
2021/04/24 06:21:23;;;;;;;0.63;0.63;;;;;;;;;;5039602;28;20736;-63
2021/04/24 06:23:49;;;;;;;0.00;0.00;;;;;;;;;;5038970;28;20179;-63
2021/04/24 06:26:16;;;;;;;0.10;0.10;;;;;;;;;;5035904;28;20473;-64
2021/04/24 06:28:43;;;;;;;0.00;0.00;;;;;;;;;;5041461;28;20218;-62
2021/04/24 06:31:10;;;;;;;0.10;0.10;;;;;;;;;;5039465;28;20199;-63
2021/04/24 06:33:37;;;;;;;0.03;0.03;;;;;;;;;;5039817;28;20174;-64
2021/04/24 06:36:04;;;;;;;0.00;0.00;;;;;;;;;;5040018;28;20176;-63
2021/04/24 06:38:30;;;;;;;0.50;0.50;;;;;;;;;;5038565;28;20187;-63
2021/04/24 06:40:57;;;;;;;0.00;0.00;;;;;;;;;;5040522;28;20479;-63
2021/04/24 06:43:23;;;;;;;0.00;0.00;;;;;;;;;;5031657;28;20176;-64
2021/04/24 06:45:50;;;;;;;0.83;0.83;;;;;;;;;;5041356;28;20191;-63
2021/04/24 06:48:16;;;;;;;3.33;1.70;;;;;;;;;;5041105;28;20200;-63
2021/04/24 06:50:43;;;;;;;1.77;1.57;;;;;;;;;;5040266;28;20215;-63
2021/04/24 06:53:09;;;;;;;0.00;0.00;;;;;;;;;;5039322;28;20558;-63
2021/04/24 06:55:36;;;;;;;1.93;0.53;;;;;;;;;;5037508;28;20168;-63
2021/04/24 06:58:03;;;;;;;0.50;0.50;;;;;;;;;;5038591;28;20168;-63
2021/04/24 07:00:29;;;;;;;0.50;0.50;;;;;;;;;;5034615;28;20175;-63
2021/04/24 07:02:56;;;;;;;1.77;1.47;;;;;;;;;;5039887;28;20617;-63
2021/04/24 07:05:23;;;;;;;0.00;0.00;;;;;;;;;;5038951;28;20180;-63
2021/04/24 07:07:49;;;;;;;0.20;0.20;;;;;;;;;;5038312;28;20265;-63
2021/04/24 07:10:16;;;;;;;0.23;0.23;;;;;;;;;;5038037;28;20179;-63
2021/04/24 07:12:45;;;;;;;0.17;0.17;;;;;;;;;;5037063;28;20214;-63
2021/04/24 07:15:12;;;;;;;5.93;2.30;;;;;;;;;;5036242;28;20228;-63
2021/04/24 07:17:39;;;;;;;0.87;0.30;;;;;;;;;;5035631;28;20195;-64
2021/04/24 07:20:06;;;;;;;0.83;0.83;;;;;;;;;;5039231;28;20938;-63
2021/04/24 07:22:33;;;;;;;0.00;0.00;;;;;;;;;;5039333;28;20180;-63
2021/04/24 07:25:00;;;;;;;0.10;0.10;;;;;;;;;;5038558;28;20180;-63
2021/04/24 07:27:26;;;;;;;0.10;0.10;;;;;;;;;;5038165;28;20180;-64
2021/04/24 07:29:53;;;;;;;0.67;0.40;;;;;;;;;;5036127;28;20846;-63
2021/04/24 07:32:19;;;;;;;0.10;0.10;;;;;;;;;;5039316;28;20265;-63
2021/04/24 07:34:46;;;;;;;0.23;0.23;;;;;;;;;;5039908;28;20510;-63
2021/04/24 07:37:12;;;;;;;3.13;0.77;;;;;;;;;;5038147;28;20179;-64
2021/04/24 07:39:39;;;;;;;0.10;0.10;;;;;;;;;;5038876;28;20183;-63
2021/04/24 07:42:06;;;;;;;0.00;0.00;;;;;;;;;;5039321;28;20182;-63
2021/04/24 07:44:34;;;;;;;0.00;0.00;;;;;;;;;;5033609;28;20184;-63
2021/04/24 07:47:01;;;;;;;0.40;0.40;;;;;;;;;;5036846;28;20183;-64
2021/04/24 07:49:27;;;;;;;0.30;0.30;;;;;;;;;;5038976;28;20195;-63
2021/04/24 07:51:54;;;;;;;0.00;0.00;;;;;;;;;;5038543;28;20218;-63
2021/04/24 07:54:21;;;;;;;2.43;1.20;;;;;;;;;;5039405;28;20179;-63
2021/04/24 07:56:48;;;;;;;0.00;0.00;;;;;;;;;;5039592;28;20238;-64
2021/04/24 07:59:14;;;;;;;0.00;0.00;;;;;;;;;;5039991;28;20176;-63
2021/04/24 08:01:41;;;;;;;1.37;1.27;;;;;;;;;;5039173;28;20533;-63
2021/04/24 08:04:09;;;;;;;0.10;0.10;;;;;;;;;;5037618;28;20183;-63
2021/04/24 08:06:36;;;;;;;0.10;0.10;;;;;;;;;;5039434;28;20826;-63
2021/04/24 08:09:03;;;;;;;0.30;0.30;;;;;;;;;;5039497;28;20982;-63
2021/04/24 08:11:30;;;;;;;0.00;0.00;;;;;;;;;;5038671;28;20231;-62
2021/04/24 08:13:57;;;;;;;0.37;0.37;;;;;;;;;;5039436;28;20771;-63
2021/04/24 08:16:23;;;;;;;0.00;0.00;;;;;;;;;;5038602;28;20202;-63
2021/04/24 08:18:50;;;;;;;0.67;0.60;;;;;;;;;;5038703;28;20210;-63
2021/04/24 08:21:17;;;;;;;0.53;0.53;;;;;;;;;;5037850;28;20194;-63
2021/04/24 08:23:43;;;;;;;0.10;0.10;;;;;;;;;;5039797;28;20172;-63
2021/04/24 08:26:10;;;;;;;0.67;0.67;;;;;;;;;;5038202;28;20263;-64
2021/04/24 08:28:37;;;;;;;2.27;1.57;;;;;;;;;;5038772;28;20186;-63
2021/04/24 08:31:03;;;;;;;0.70;0.70;;;;;;;;;;5039263;28;20830;-63
2021/04/24 08:33:30;;;;;;;0.43;0.43;;;;;;;;;;5037282;28;20678;-63
2021/04/24 08:35:57;;;;;;;0.30;0.30;;;;;;;;;;5037664;28;20768;-63
2021/04/24 08:38:24;;;;;;;0.20;0.20;;;;;;;;;;5037391;28;20935;-63
2021/04/24 08:40:51;;;;;;;1.70;1.60;;;;;;;;;;5039098;28;20261;-63
2021/04/24 08:43:19;;;;;;;0.10;0.10;;;;;;;;;;5039415;28;20186;-63
2021/04/24 08:45:48;;;;;;;0.10;0.10;;;;;;;;;;5038776;28;20991;-63
2021/04/24 08:48:14;;;;;;;0.00;0.00;;;;;;;;;;5041268;28;20387;-63
2021/04/24 08:50:41;;;;;;;0.17;0.17;;;;;;;;;;5037290;28;20195;-63
2021/04/24 08:53:07;;;;;;;0.10;0.10;;;;;;;;;;5037940;28;20283;-63
2021/04/24 08:55:36;;;;;;;0.10;0.10;;;;;;;;;;5037448;28;20937;-63
2021/04/24 08:58:04;;;;;;;0.00;0.00;;;;;;;;;;5039276;28;20194;-63
2021/04/24 09:00:33;;;;;;;0.00;0.00;;;;;;;;;;5038364;28;20369;-63
2021/04/24 09:03:00;;;;;;;0.60;0.60;;;;;;;;;;5026691;28;20190;-63
2021/04/24 09:05:27;;;;;;;0.10;0.10;;;;;;;;;;5038596;28;20175;-63
2021/04/24 09:08:01;;;;;;;0.50;0.50;;;;;;;;;;5038449;28;20231;-63
2021/04/24 09:10:28;;;;;;;0.00;0.00;;;;;;;;;;5036157;28;20175;-63
2021/04/24 09:12:55;;;;;;;0.70;0.60;;;;;;;;;;5035530;28;20267;-63
2021/04/24 09:15:23;;;;;;;0.10;0.10;;;;;;;;;;5033127;28;20587;-62
2021/04/24 09:17:50;;;;;;;0.00;0.00;;;;;;;;;;5029934;28;20179;-63
2021/04/24 09:20:17;;;;;;;2.63;0.57;;;;;;;;;;5034523;28;20968;-64
2021/04/24 09:22:53;;;;;;;0.10;0.10;;;;;;;;;;5033646;28;20280;-63
2021/04/24 09:25:19;;;;;;;0.17;0.17;;;;;;;;;;5028028;28;20197;-64
2021/04/24 09:27:48;;;;;;;4.13;1.30;;;;;;;;;;5031069;28;20637;-63
2021/04/24 09:30:15;;;;;;;0.60;0.60;;;;;;;;;;5032940;28;20439;-63
2021/04/24 09:32:41;;;;;;;1.07;0.40;;;;;;;;;;5039798;28;20211;-62
2021/04/24 09:35:08;;;;;;;0.40;0.40;;;;;;;;;;5035146;28;20187;-62
2021/04/24 09:37:35;;;;;;;0.00;0.00;;;;;;;;;;5038260;28;20191;-63
2021/04/24 09:40:01;;;;;;;0.40;0.20;;;;;;;;;;5039436;28;20182;-63
2021/04/24 09:42:32;;;;;;;0.00;0.00;;;;;;;;;;5041919;28;20195;-63
2021/04/24 09:44:59;;;;;;;0.03;0.03;;;;;;;;;;5037774;28;21028;-63
2021/04/24 09:47:43;;;;;;;0.00;0.00;;;;;;;;;;5034012;28;20210;-63
2021/04/24 09:50:13;;;;;;;0.03;0.03;;;;;;;;;;5029547;28;20186;-62
2021/04/24 09:52:39;;;;;;;4.10;1.47;;;;;;;;;;5037543;28;20206;-61
2021/04/24 09:55:06;;;;;;;0.13;0.13;;;;;;;;;;5040634;28;20179;-62
2021/04/24 09:57:34;;;;;;;0.30;0.30;;;;;;;;;;5040530;28;20253;-62
2021/04/24 10:00:02;;;;;;;0.33;0.33;;;;;;;;;;5041020;28;20704;-62
2021/04/24 10:02:35;;;;;;;0.07;0.07;;;;;;;;;;5040478;28;20882;-61
2021/04/24 10:05:28;;;;;;;7.00;3.93;;;;;;;;;;5028745;28;20807;-61
2021/04/24 10:07:56;;;;;;;0.27;0.27;;;;;;;;;;5039102;28;20248;-62
2021/04/24 10:10:38;;;;;;;0.00;0.00;;;;;;;;;;5035909;28;20590;-61
2021/04/24 10:13:08;;;;;;;1.80;0.90;;;;;;;;;;5022600;28;20180;-62
2021/04/24 10:15:39;;;;;;;0.13;0.13;;;;;;;;;;5035710;28;20182;-61
2021/04/24 10:18:07;;;;;;;0.00;0.00;;;;;;;;;;5042013;28;20171;-62
2021/04/24 10:20:34;;;;;;;0.17;0.17;;;;;;;;;;5036337;28;20490;-62
2021/04/24 10:23:06;;;;;;;1.20;0.67;;;;;;;;;;5042136;28;20164;-61
2021/04/24 10:25:32;;;;;;;0.00;0.00;;;;;;;;;;5041496;28;20187;-62
2021/04/24 10:27:59;;;;;;;4.43;4.13;;;;;;;;;;5042315;28;20156;-62
2021/04/24 10:30:26;;;;;;;9.77;2.10;;;;;;;;;;5042109;28;20633;-62
2021/04/24 10:32:53;;;;;;;0.00;0.00;;;;;;;;;;5041476;28;20458;-61
2021/04/24 13:20:01;;;;;;;2.80;2.23;;;;;;;;;;5081750;28;20781;-57
2021/04/24 13:22:45;;;;;;;2.33;1.10;;;;;;;;;;5080263;28;20624;-57
2021/04/24 13:25:13;;;;;;;3.70;0.60;;;;;;;;;;5080913;28;20175;-57
2021/04/24 13:27:40;;;;;;;5.60;1.20;;;;;;;;;;5082009;28;20174;-58
2021/04/24 13:30:22;;;;;;;0.30;0.30;;;;;;;;;;5081374;28;20174;-58
2021/04/24 13:33:01;;;;;;;0.00;0.00;;;;;;;;;;5089923;28;20175;-57
2021/04/24 13:35:46;;;;;;;0.87;0.87;;;;;;;;;;5102386;28;20232;-58
2021/04/24 13:38:16;;;;;;;2.60;1.13;;;;;;;;;;5101620;28;20523;-58
2021/04/24 13:40:49;;;;;;;0.30;0.30;;;;;;;;;;5100798;28;20189;-57
2021/04/24 13:43:39;;;;;;;2.10;0.73;;;;;;;;;;5102791;28;20177;-57
2021/04/24 13:46:25;;;;;;;7.03;0.87;;;;;;;;;;5103246;28;20457;-57
2021/04/24 13:48:54;;;;;;;17.73;4.43;;;;;;;;;;5102988;28;20173;-57
2021/04/24 13:51:29;;;;;;;1.17;0.20;;;;;;;;;;5102286;28;20165;-57
2021/04/24 13:54:04;;;;;;;3.03;1.53;;;;;;;;;;5102411;28;20610;-57
2021/04/24 13:56:32;;;;;;;0.37;0.37;;;;;;;;;;5102228;28;20210;-57
2021/04/24 13:59:03;;;;;;;2.47;0.90;;;;;;;;;;5102156;28;20162;-58
2021/04/24 14:01:30;;;;;;;3.63;1.90;;;;;;;;;;5101577;28;20215;-58
2021/04/24 14:04:01;;;;;;;0.63;0.07;;;;;;;;;;5098949;28;20185;-58
2021/04/24 14:06:31;;;;;;;1.40;0.60;;;;;;;;;;5102223;28;20582;-57
2021/04/24 14:08:58;;;;;;;0.70;0.70;;;;;;;;;;5096105;28;20191;-58
2021/04/24 14:11:28;;;;;;;10.93;0.87;;;;;;;;;;5078889;28;20193;-58
2021/04/24 14:13:56;;;;;;;1.70;0.77;;;;;;;;;;5079047;28;20216;-58
2021/04/24 14:16:41;;;;;;;0.00;0.00;;;;;;;;;;5077985;28;20242;-58
2021/04/24 14:19:09;;;;;;;1.57;1.03;;;;;;;;;;5079833;28;20163;-58
2021/04/24 14:21:37;;;;;;;3.13;0.50;;;;;;;;;;5083752;28;20238;-58
2021/04/24 14:24:04;;;;;;;3.00;1.30;;;;;;;;;;5099363;28;20181;-57
2021/04/24 14:26:41;;;;;;;0.20;0.20;;;;;;;;;;5076005;28;20196;-57
2021/04/24 14:29:08;;;;;;;0.23;0.20;;;;;;;;;;5064931;28;20174;-57
2021/04/24 14:31:36;;;;;;;0.80;0.50;;;;;;;;;;5065889;28;20183;-58
2021/04/24 14:34:06;;;;;;;0.50;0.37;;;;;;;;;;5064766;28;20259;-58
2021/04/24 14:36:44;;;;;;;0.30;0.27;;;;;;;;;;5064653;28;20208;-58
2021/04/24 14:39:10;;;;;;;2.10;0.57;;;;;;;;;;5064238;28;20546;-58
2021/04/24 14:41:39;;;;;;;4.80;2.83;;;;;;;;;;5066282;28;20592;-57
2021/04/24 14:44:07;;;;;;;0.10;0.10;;;;;;;;;;5066133;28;20250;-58
2021/04/24 14:46:37;;;;;;;1.47;0.80;;;;;;;;;;5065531;28;20175;-58
2021/04/24 14:49:04;;;;;;;0.10;0.10;;;;;;;;;;5065628;28;20265;-58
2021/04/24 14:51:31;;;;;;;0.67;0.50;;;;;;;;;;5065334;28;20160;-58
2021/04/24 14:54:06;;;;;;;3.60;0.40;;;;;;;;;;5063670;28;20178;-58
2021/04/24 14:56:34;;;;;;;7.13;2.53;;;;;;;;;;5082168;28;20210;-59
2021/04/24 14:59:00;;;;;;;2.30;0.70;;;;;;;;;;5085626;28;20214;-58
2021/04/24 15:01:35;;;;;;;2.00;0.67;;;;;;;;;;5086274;28;20245;-58
2021/04/24 15:04:04;;;;;;;7.30;0.40;;;;;;;;;;5086830;28;20239;-58
2021/04/24 15:06:30;;;;;;;0.17;0.17;;;;;;;;;;5086839;28;20512;-58
2021/04/24 15:08:57;;;;;;;1.30;0.83;;;;;;;;;;5085654;28;20254;-59
2021/04/24 15:11:29;;;;;;;43.13;39.10;;;;;;;;;;5087426;28;20633;-58
2021/04/24 15:14:15;;;;;;;4.60;1.27;;;;;;;;;;5065295;28;20191;-58
2021/04/24 15:16:50;;;;;;;0.70;0.40;;;;;;;;;;5066650;28;20186;-58
2021/04/24 15:19:17;;;;;;;2.83;2.00;;;;;;;;;;5065554;28;20171;-58
2021/04/24 15:21:48;;;;;;;1.20;0.50;;;;;;;;;;5067294;28;20176;-58
2021/04/24 15:24:15;;;;;;;0.20;0.20;;;;;;;;;;5084810;28;20173;-58
2021/04/24 15:26:53;;;;;;;0.00;0.00;;;;;;;;;;5068845;28;20198;-58
2021/04/24 15:29:20;;;;;;;0.70;0.43;;;;;;;;;;5063264;28;20181;-58
2021/04/24 15:31:55;;;;;;;0.10;0.10;;;;;;;;;;5071931;28;20259;-58
2021/04/24 15:34:23;;;;;;;0.10;0.10;;;;;;;;;;5067863;28;20171;-58
2021/04/24 15:36:56;;;;;;;3.53;0.60;;;;;;;;;;5063541;28;20183;-58
2021/04/24 15:39:24;;;;;;;2.73;0.67;;;;;;;;;;5061058;28;20183;-59
2021/04/24 15:41:53;;;;;;;0.97;0.83;;;;;;;;;;5063207;28;20639;-59
2021/04/24 15:44:22;;;;;;;1.63;0.50;;;;;;;;;;5067617;28;20196;-58
2021/04/24 15:46:50;;;;;;;0.20;0.20;;;;;;;;;;5064203;28;20539;-58
2021/04/24 15:49:17;;;;;;;0.23;0.23;;;;;;;;;;5063313;28;20167;-59
2021/04/24 15:51:44;;;;;;;0.33;0.23;;;;;;;;;;5062970;28;20186;-59
2021/04/24 15:54:21;;;;;;;2.47;0.73;;;;;;;;;;5063050;28;20163;-58
2021/04/24 15:56:55;;;;;;;2.77;0.93;;;;;;;;;;5056106;28;20183;-58
2021/04/24 15:59:22;;;;;;;5.53;0.80;;;;;;;;;;5062051;28;20169;-58
2021/04/24 16:01:48;;;;;;;2.37;1.03;;;;;;;;;;5080989;28;20174;-58
2021/04/24 16:04:16;;;;;;;7.67;0.90;;;;;;;;;;5082765;28;20167;-58
2021/04/24 16:06:43;;;;;;;0.87;0.30;;;;;;;;;;5064607;28;20594;-58
2021/04/24 16:09:16;;;;;;;0.97;0.40;;;;;;;;;;5063575;28;20205;-58
2021/04/24 16:11:43;;;;;;;0.20;0.20;;;;;;;;;;5065170;28;20269;-58
2021/04/24 16:14:10;;;;;;;1.47;1.37;;;;;;;;;;5075374;28;20182;-58
2021/04/24 16:16:39;;;;;;;0.13;0.13;;;;;;;;;;5063221;28;20238;-58
2021/04/24 16:19:06;;;;;;;0.00;0.00;;;;;;;;;;5067290;28;20168;-58
2021/04/24 16:21:33;;;;;;;1.00;0.43;;;;;;;;;;5065521;28;20286;-57
2021/04/24 16:24:00;;;;;;;0.77;0.50;;;;;;;;;;5064062;28;20174;-58
2021/04/24 16:26:27;;;;;;;0.27;0.27;;;;;;;;;;5064374;28;20175;-59
2021/04/24 16:28:56;;;;;;;0.83;0.30;;;;;;;;;;5064313;28;20344;-58
2021/04/24 16:31:24;;;;;;;0.17;0.17;;;;;;;;;;5064454;28;20795;-58
2021/04/24 16:33:59;;;;;;;0.23;0.20;;;;;;;;;;5063422;28;20180;-58
2021/04/24 16:36:37;;;;;;;0.00;0.00;;;;;;;;;;5065549;28;20495;-58
2021/04/24 16:39:05;;;;;;;2.20;0.67;;;;;;;;;;5063305;28;20173;-60
2021/04/24 16:41:31;;;;;;;0.10;0.10;;;;;;;;;;5071558;28;20197;-60
2021/04/24 16:44:04;;;;;;;0.30;0.20;;;;;;;;;;5061760;28;20690;-60
2021/04/24 16:46:31;;;;;;;0.00;0.00;;;;;;;;;;5062709;28;20206;-60
2021/04/24 16:48:58;;;;;;;0.87;0.60;;;;;;;;;;5062387;28;20179;-60
2021/04/24 16:51:24;;;;;;;2.53;1.13;;;;;;;;;;5058676;28;20194;-60
2021/04/24 16:53:51;;;;;;;0.00;0.00;;;;;;;;;;5061293;28;20890;-60
2021/04/24 16:56:17;;;;;;;0.43;0.37;;;;;;;;;;5059098;28;20190;-60
2021/04/24 16:58:47;;;;;;;1.03;0.70;;;;;;;;;;5059341;28;20179;-60
2021/04/24 17:01:14;;;;;;;0.20;0.17;;;;;;;;;;5057472;28;20187;-60
2021/04/24 17:03:40;;;;;;;0.13;0.13;;;;;;;;;;5057732;28;20172;-60
2021/04/24 17:06:07;;;;;;;1.90;0.40;;;;;;;;;;5052783;28;20236;-60
2021/04/24 17:08:33;;;;;;;1.13;0.83;;;;;;;;;;5055771;28;20271;-60
2021/04/24 17:11:00;;;;;;;2.00;0.83;;;;;;;;;;5052092;28;20665;-60
2021/04/24 17:13:26;;;;;;;0.60;0.50;;;;;;;;;;5052500;28;20178;-60
2021/04/24 17:15:53;;;;;;;1.30;0.83;;;;;;;;;;5053187;28;20264;-61
2021/04/24 17:18:20;;;;;;;0.10;0.10;;;;;;;;;;5055621;28;20214;-60
2021/04/24 17:20:46;;;;;;;0.77;0.30;;;;;;;;;;5053628;28;20193;-61
2021/04/24 17:23:13;;;;;;;0.40;0.37;;;;;;;;;;5057784;28;20186;-61
2021/04/24 17:25:42;;;;;;;0.00;0.00;;;;;;;;;;5059732;28;20175;-62
2021/04/24 17:28:09;;;;;;;0.60;0.53;;;;;;;;;;5056964;28;20435;-61
2021/04/24 17:30:36;;;;;;;2.73;0.67;;;;;;;;;;5053338;28;20193;-59
2021/04/24 17:33:03;;;;;;;0.43;0.23;;;;;;;;;;5050290;28;20186;-59
2021/04/24 17:35:30;;;;;;;3.50;0.40;;;;;;;;;;5055821;28;20224;-59